Terminal Aerodrome Forecast
Issued by NWS

Home | Current Version | Previous Version | Text Only | Print | Product List | Glossary On
Versions: 1 2 3 4 5 6 7 8 9 10 11 12 13 14
559
FTUS46 KMTR 101120
TAFMRY
TAF
KMRY 101120Z 1012/1112 08005KT P6SM SKC
     FM101700 VRB05KT P6SM SKC
     FM101900 29004KT P6SM SCT200
     FM110300 09004KT P6SM BKN200=

USA.gov is the U.S. government's official web portal to all federal, state and local government web resources and services.